Time;durP1;ratioP1;P1;durP2;ratioP2;P2;SDS_P1;SDS_P2;PMS_P1;PMS_P2;Temp;Humidity;BMP_temperature;BMP_pressure;BME280_temperature;BME280_humidity;BME280_pressure;Samples;Min_cycle;Max_cycle;Signal;HPM_P1;HPM_P2
2021/12/10 00:00:25;;;;;;;;;;;;;;;3.34;96.48;100403.36;1760225;81;20473;-63
2021/12/10 00:02:53;;;;;;;;;;;;;;;3.37;96.52;100403.05;1733425;82;20440;-62
2021/12/10 00:05:25;;;;;;;;;;;;;;;3.40;96.46;100408.16;1748100;82;20210;-65
2021/12/10 00:07:55;;;;;;;;;;;;;;;3.41;96.49;100400.39;1748029;82;20197;-63
2021/12/10 00:10:27;;;;;;;;;;;;;;;3.43;96.50;100402.95;1748079;82;20161;-63
2021/12/10 00:12:55;;;;;;;;;;;;;;;3.45;96.54;100403.65;1717259;83;20464;-63
2021/12/10 00:15:27;;;;;;;;;;;;;;;3.48;96.50;100401.98;1709424;84;20218;-62
2021/12/10 00:17:56;;;;;;;;;;;;;;;3.49;96.47;100407.76;1711302;84;20536;-62
2021/12/10 00:20:26;;;;;;;;;;;;;;;3.52;96.47;100401.19;1708666;84;20246;-62
2021/12/10 00:23:02;;;;;;;;;;;;;;;3.55;96.56;100407.15;1719597;83;20168;-63
2021/12/10 00:25:36;;;;;;;;;;;;;;;3.57;96.54;100405.14;1716275;84;20451;-63
2021/12/10 00:28:16;;;;;;;;;;;;;;;3.59;96.55;100405.84;1739696;82;20468;-62
2021/12/10 00:31:17;;;;;;;;;;;;;;;3.61;96.57;100417.88;1739567;82;20158;-63
2021/12/10 00:33:39;;;;;;;;;;;;;;;3.62;96.52;100415.52;1672544;85;20489;-62
2021/12/10 00:36:07;;;;;;;;;;;;;;;3.63;96.47;100412.66;1703138;83;20148;-63
2021/12/10 00:38:35;;;;;;;;;;;;;;;3.68;96.51;100410.34;1721128;83;20484;-62
2021/12/10 00:41:05;;;;;;;;;;;;;;;3.69;96.50;100409.34;1717914;83;20521;-62
2021/12/10 00:43:34;;;;;;;;;;;;;;;3.71;96.47;100409.18;1695872;83;20604;-63
2021/12/10 00:46:02;;;;;;;;;;;;;;;3.71;96.48;100407.83;1667451;86;20258;-62
2021/12/10 00:48:32;;;;;;;;;;;;;;;3.73;96.51;100399.89;1667413;86;20160;-61
2021/12/10 00:51:01;;;;;;;;;;;;;;;3.76;96.48;100409.06;1667680;86;20585;-62
2021/12/10 00:53:30;;;;;;;;;;;;;;;3.78;96.42;100400.78;1667485;85;20183;-65
2021/12/10 00:55:59;;;;;;;;;;;;;;;3.78;96.39;100400.28;1667588;86;20219;-62
2021/12/10 00:58:29;;;;;;;;;;;;;;;3.80;96.43;100401.48;1667784;86;20219;-64
2021/12/10 01:01:00;;;;;;;;;;;;;;;3.82;96.46;100394.05;1703926;83;20223;-63
2021/12/10 01:03:33;;;;;;;;;;;;;;;3.86;96.46;100394.09;1728662;83;20216;-62
2021/12/10 01:06:03;;;;;;;;;;;;;;;3.87;96.39;100397.66;1728232;83;20203;-61
2021/12/10 01:08:32;;;;;;;;;;;;;;;3.87;96.33;100390.88;1693849;83;20514;-63
2021/12/10 01:11:05;;;;;;;;;;;;;;;3.89;96.37;100391.06;1687046;85;20600;-62
2021/12/10 01:13:35;;;;;;;;;;;;;;;3.91;96.42;100390.44;1686715;85;20181;-62
2021/12/10 01:24:34;;;;;;;;;;;;;;;3.91;96.25;100363.84;1686984;85;20540;-63
2021/12/10 01:29:23;;;;;;;;;;;;;;;3.85;96.26;100371.20;1686720;85;20476;-63
2021/12/10 01:31:51;;;;;;;;;;;;;;;3.87;96.41;100371.40;1686918;85;20538;-62
2021/12/10 01:34:20;;;;;;;;;;;;;;;3.88;96.46;100366.83;1683130;83;20473;-63
2021/12/10 01:36:48;;;;;;;;;;;;;;;3.91;96.46;100367.91;1667475;86;20208;-64
2021/12/10 01:39:20;;;;;;;;;;;;;;;3.93;96.50;100358.61;1667459;86;20155;-63
2021/12/10 01:41:55;;;;;;;;;;;;;;;3.96;96.53;100361.01;1667764;84;20211;-62
2021/12/10 01:44:27;;;;;;;;;;;;;;;3.98;96.58;100351.37;1666892;86;20179;-61
2021/12/10 01:46:48;;;;;;;;;;;;;;;4.01;96.63;100344.27;1626668;86;20193;-64
2021/12/10 01:49:17;;;;;;;;;;;;;;;4.04;96.76;100339.39;1634638;87;20216;-61
2021/12/10 01:51:45;;;;;;;;;;;;;;;4.07;96.81;100334.16;1654662;87;20169;-62
2021/12/10 01:54:20;;;;;;;;;;;;;;;4.09;96.82;100330.78;1654547;87;20224;-61
2021/12/10 01:56:49;;;;;;;;;;;;;;;4.09;96.82;100327.57;1654742;87;20524;-64
2021/12/10 01:59:17;;;;;;;;;;;;;;;4.12;96.94;100329.11;1645057;87;20221;-63
2021/12/10 02:01:48;;;;;;;;;;;;;;;4.13;96.99;100334.38;1644931;87;20190;-62
2021/12/10 02:04:20;;;;;;;;;;;;;;;4.17;97.12;100327.28;1663181;85;20545;-63
2021/12/10 02:06:48;;;;;;;;;;;;;;;4.21;97.18;100334.09;1670304;86;20195;-62
2021/12/10 02:09:18;;;;;;;;;;;;;;;4.23;97.24;100329.36;1670432;86;20190;-64
2021/12/10 02:11:46;;;;;;;;;;;;;;;4.27;97.31;100332.10;1690149;85;20223;-62
2021/12/10 02:14:15;;;;;;;;;;;;;;;4.30;97.36;100343.48;1688203;85;20468;-63
2021/12/10 02:16:44;;;;;;;;;;;;;;;4.33;97.39;100346.38;1672807;86;20466;-64
2021/12/10 02:19:12;;;;;;;;;;;;;;;4.36;97.38;100352.84;1661193;86;20653;-64
2021/12/10 02:21:40;;;;;;;;;;;;;;;4.35;97.36;100353.34;1657623;85;20204;-63
2021/12/10 02:24:10;;;;;;;;;;;;;;;4.34;97.35;100350.80;1645424;87;20475;-63
2021/12/10 02:26:45;;;;;;;;;;;;;;;4.31;97.30;100345.69;1623687;88;20542;-63
2021/12/10 02:29:15;;;;;;;;;;;;;;;4.28;97.30;100348.22;1632959;87;20169;-62
2021/12/10 02:31:45;;;;;;;;;;;;;;;4.29;97.33;100358.05;1645590;87;20204;-63
2021/12/10 02:34:13;;;;;;;;;;;;;;;4.29;97.36;100352.63;1645835;87;20493;-63
2021/12/10 02:36:42;;;;;;;;;;;;;;;4.30;97.43;100352.13;1632527;87;20461;-64
2021/12/10 02:39:12;;;;;;;;;;;;;;;4.30;97.47;100348.91;1657334;86;20166;-63
2021/12/10 02:41:41;;;;;;;;;;;;;;;4.30;97.52;100350.27;1709748;83;20212;-63
2021/12/10 02:44:11;;;;;;;;;;;;;;;4.32;97.60;100344.68;1724048;81;20335;-62
2021/12/10 02:46:40;;;;;;;;;;;;;;;4.34;97.70;100348.08;1774115;80;20207;-63
2021/12/10 02:49:10;;;;;;;;;;;;;;;4.36;97.72;100351.48;1774447;81;20194;-64
2021/12/10 02:51:38;;;;;;;;;;;;;;;4.38;97.72;100353.53;1774026;80;20579;-61
2021/12/10 02:54:09;;;;;;;;;;;;;;;4.38;97.71;100356.25;1774058;80;20530;-63
2021/12/10 02:56:37;;;;;;;;;;;;;;;4.38;97.69;100358.45;1721074;83;20208;-63
2021/12/10 02:59:06;;;;;;;;;;;;;;;4.39;97.75;100356.09;1721125;83;20160;-63
2021/12/10 03:01:47;;;;;;;;;;;;;;;4.40;97.80;100351.52;1721342;83;20490;-62
2021/12/10 03:04:17;;;;;;;;;;;;;;;4.41;97.86;100349.15;1721101;83;20188;-63
2021/12/10 03:06:52;;;;;;;;;;;;;;;4.42;97.90;100346.27;1721610;83;20280;-64
2021/12/10 03:09:21;;;;;;;;;;;;;;;4.46;97.91;100348.16;1721375;83;20223;-63
2021/12/10 03:11:49;;;;;;;;;;;;;;;4.45;97.86;100358.67;1722644;81;20221;-62
2021/12/10 03:14:20;;;;;;;;;;;;;;;4.47;97.93;100358.00;1722655;83;20210;-62
2021/12/10 03:16:51;;;;;;;;;;;;;;;4.48;97.95;100355.64;1722646;83;20170;-65
2021/12/10 03:19:19;;;;;;;;;;;;;;;4.47;97.99;100358.00;1722750;83;20510;-63
2021/12/10 03:21:49;;;;;;;;;;;;;;;4.49;98.03;100357.34;1722967;83;20177;-63
2021/12/10 03:24:22;;;;;;;;;;;;;;;4.50;98.06;100364.47;1722871;82;20448;-67
2021/12/10 03:26:51;;;;;;;;;;;;;;;4.51;98.03;100368.88;1754091;81;20465;-64
2021/12/10 03:29:21;;;;;;;;;;;;;;;4.51;98.00;100370.23;1774152;81;20465;-63
2021/12/10 03:31:49;;;;;;;;;;;;;;;4.51;98.02;100370.23;1774180;81;20207;-64
2021/12/10 03:34:18;;;;;;;;;;;;;;;4.52;98.09;100365.16;1774818;81;20234;-63
2021/12/10 03:36:48;;;;;;;;;;;;;;;4.53;98.12;100366.01;1774528;80;20283;-63
2021/12/10 03:39:18;;;;;;;;;;;;;;;4.53;98.14;100365.50;1774179;81;20622;-62
2021/12/10 03:41:46;;;;;;;;;;;;;;;4.52;98.11;100356.17;1745627;81;20201;-63
2021/12/10 03:44:15;;;;;;;;;;;;;;;4.53;98.16;100351.94;1723041;82;20158;-64
2021/12/10 03:46:43;;;;;;;;;;;;;;;4.55;98.24;100357.20;1709954;83;20452;-64
2021/12/10 03:49:12;;;;;;;;;;;;;;;4.56;98.28;100361.14;1709870;84;20229;-64
2021/12/10 03:51:39;;;;;;;;;;;;;;;4.56;98.30;100353.52;1710315;83;20174;-64
2021/12/10 03:54:08;;;;;;;;;;;;;;;4.54;98.38;100352.28;1709943;84;20166;-63
2021/12/10 03:56:36;;;;;;;;;;;;;;;4.56;98.47;100350.80;1709813;84;20210;-63
2021/12/10 03:59:07;;;;;;;;;;;;;;;4.59;98.56;100367.61;1765187;81;20214;-66
2021/12/10 04:01:38;;;;;;;;;;;;;;;4.61;98.58;100374.23;1779036;81;20458;-64
2021/12/10 04:04:08;;;;;;;;;;;;;;;4.62;98.62;100383.57;1778903;81;20219;-63
2021/12/10 04:06:36;;;;;;;;;;;;;;;4.62;98.59;100375.94;1779268;81;20147;-64
2021/12/10 04:09:05;;;;;;;;;;;;;;;4.63;98.64;100379.84;1778908;81;20155;-64
2021/12/10 04:11:33;;;;;;;;;;;;;;;4.63;98.68;100367.64;1778899;81;20236;-64
2021/12/10 04:14:01;;;;;;;;;;;;;;;4.63;98.70;100374.42;1779135;81;20543;-64
2021/12/10 04:16:32;;;;;;;;;;;;;;;4.62;98.72;100384.93;1714510;80;20179;-63
2021/12/10 04:19:03;;;;;;;;;;;;;;;4.64;98.77;100361.70;1709859;84;20238;-62
2021/12/10 04:21:31;;;;;;;;;;;;;;;4.64;98.77;100359.84;1709976;83;20215;-63
2021/12/10 04:23:59;;;;;;;;;;;;;;;4.63;98.77;100362.20;1709815;83;20182;-63
2021/12/10 04:26:28;;;;;;;;;;;;;;;4.63;98.82;100360.85;1709878;84;20159;-64
2021/12/10 04:28:56;;;;;;;;;;;;;;;4.66;98.87;100361.03;1709925;84;20219;-64
2021/12/10 04:31:26;;;;;;;;;;;;;;;4.67;98.90;100358.67;1722230;81;20158;-64
2021/12/10 04:33:56;;;;;;;;;;;;;;;4.69;98.96;100367.50;1778920;81;20259;-64
2021/12/10 04:36:24;;;;;;;;;;;;;;;4.69;98.97;100362.92;1778871;81;20251;-66
2021/12/10 04:38:52;;;;;;;;;;;;;;;4.70;98.95;100357.84;1778312;81;20214;-62
2021/12/10 04:41:20;;;;;;;;;;;;;;;4.73;98.96;100360.73;1778884;81;20159;-63
2021/12/10 04:43:49;;;;;;;;;;;;;;;4.74;98.93;100362.44;1778663;81;20567;-63
2021/12/10 04:46:17;;;;;;;;;;;;;;;4.73;98.89;100360.73;1778616;81;20203;-63
2021/12/10 04:48:58;;;;;;;;;;;;;;;4.74;98.86;100374.15;1756791;81;20232;-63
2021/12/10 04:51:28;;;;;;;;;;;;;;;4.74;98.88;100355.15;1709753;84;20178;-65
2021/12/10 04:53:57;;;;;;;;;;;;;;;4.74;98.87;100352.44;1709759;84;20155;-64
2021/12/10 04:56:26;;;;;;;;;;;;;;;4.74;98.86;100348.36;1709681;84;20183;-63
2021/12/10 04:58:55;;;;;;;;;;;;;;;4.74;98.81;100358.37;1709840;84;20472;-64
2021/12/10 05:01:23;;;;;;;;;;;;;;;4.74;98.82;100352.44;1709685;83;20198;-65
2021/12/10 05:03:53;;;;;;;;;;;;;;;4.76;98.82;100349.05;1709944;84;20822;-62
2021/12/10 05:06:21;;;;;;;;;;;;;;;4.77;98.79;100348.04;1756893;81;20524;-63
2021/12/10 05:08:49;;;;;;;;;;;;;;;4.74;98.71;100352.44;1778629;81;20190;-65
2021/12/10 05:11:18;;;;;;;;;;;;;;;4.74;98.75;100350.23;1778737;81;20236;-63
2021/12/10 05:13:47;;;;;;;;;;;;;;;4.75;98.74;100345.99;1778707;81;20159;-65
2021/12/10 05:16:17;;;;;;;;;;;;;;;4.78;98.75;100355.17;1778627;81;20144;-64
2021/12/10 05:18:53;;;;;;;;;;;;;;;4.78;98.61;100354.31;1778648;81;20282;-64
2021/12/10 05:21:17;;;;;;;;;;;;;;;4.77;98.54;100355.33;1778634;80;20147;-63
2021/12/10 05:23:46;;;;;;;;;;;;;;;4.76;98.43;100359.91;1777942;81;20147;-64
2021/12/10 05:26:14;;;;;;;;;;;;;;;4.75;98.41;100359.56;1778665;81;20488;-65
2021/12/10 05:28:42;;;;;;;;;;;;;;;4.75;98.39;100364.99;1778632;81;20178;-65
2021/12/10 05:31:11;;;;;;;;;;;;;;;4.75;98.41;100367.70;1778864;81;20167;-64
2021/12/10 05:33:40;;;;;;;;;;;;;;;4.77;98.39;100362.12;1778612;81;20183;-64
2021/12/10 05:36:09;;;;;;;;;;;;;;;4.78;98.37;100367.38;1778617;81;20215;-63
2021/12/10 05:38:38;;;;;;;;;;;;;;;4.78;98.27;100375.53;1778771;81;20203;-65
2021/12/10 05:41:09;;;;;;;;;;;;;;;4.81;98.24;100388.43;1758484;81;20514;-65
2021/12/10 05:43:39;;;;;;;;;;;;;;;4.81;98.25;100387.08;1750318;82;20197;-67
2021/12/10 05:46:07;;;;;;;;;;;;;;;4.84;98.27;100388.96;1750286;82;20257;-64
2021/12/10 05:48:36;;;;;;;;;;;;;;;4.88;98.33;100390.84;1750306;82;20165;-64
2021/12/10 05:51:05;;;;;;;;;;;;;;;4.89;98.23;100392.55;1750265;82;20166;-63
2021/12/10 05:53:33;;;;;;;;;;;;;;;4.90;98.18;100382.03;1750700;81;20463;-66
2021/12/10 05:56:03;;;;;;;;;;;;;;;4.91;98.19;100391.38;1778615;81;20217;-64
2021/12/10 05:58:44;;;;;;;;;;;;;;;4.93;98.13;100384.42;1778515;81;20171;-63
2021/12/10 06:01:15;;;;;;;;;;;;;;;4.95;98.06;100386.47;1778614;81;20203;-64
2021/12/10 06:03:51;;;;;;;;;;;;;;;4.94;98.01;100389.69;1778668;81;20171;-64
2021/12/10 06:06:14;;;;;;;;;;;;;;;4.93;97.96;100391.21;1777961;80;20209;-65
2021/12/10 06:08:42;;;;;;;;;;;;;;;4.94;97.94;100396.48;1773356;81;20830;-65
2021/12/10 06:11:11;;;;;;;;;;;;;;;4.95;97.90;100391.91;1709713;83;20158;-66
2021/12/10 06:13:41;;;;;;;;;;;;;;;4.99;97.91;100394.64;1709599;83;20210;-64
2021/12/10 06:16:09;;;;;;;;;;;;;;;5.01;97.83;100392.61;1709579;84;20231;-65
2021/12/10 06:18:37;;;;;;;;;;;;;;;5.00;97.71;100387.69;1709485;84;20221;-64
2021/12/10 06:21:06;;;;;;;;;;;;;;;5.04;97.74;100393.64;1709989;84;20199;-64
2021/12/10 06:23:35;;;;;;;;;;;;;;;5.03;97.65;100396.02;1709657;84;20226;-64
2021/12/10 06:26:04;;;;;;;;;;;;;;;5.04;97.62;100396.36;1718389;81;20333;-64
2021/12/10 06:28:36;;;;;;;;;;;;;;;5.04;97.59;100384.14;1778545;80;20230;-66
2021/12/10 06:31:05;;;;;;;;;;;;;;;5.06;97.55;100391.62;1778610;81;20176;-65
2021/12/10 06:33:34;;;;;;;;;;;;;;;5.05;97.49;100390.77;1778839;81;20645;-64
2021/12/10 06:36:07;;;;;;;;;;;;;;;5.08;97.47;100395.88;1778800;81;20470;-65
2021/12/10 06:38:36;;;;;;;;;;;;;;;5.09;97.42;100394.86;1778627;81;20160;-65
2021/12/10 06:41:04;;;;;;;;;;;;;;;5.13;97.46;100401.33;1778600;81;20191;-64
2021/12/10 06:43:33;;;;;;;;;;;;;;;5.14;97.46;100395.73;1763092;81;20326;-64
2021/12/10 06:46:04;;;;;;;;;;;;;;;5.16;97.41;100399.13;1713642;82;20479;-65
2021/12/10 06:48:33;;;;;;;;;;;;;;;5.14;97.17;100387.58;1723087;82;20166;-63
2021/12/10 06:51:09;;;;;;;;;;;;;;;5.13;97.10;100389.95;1722634;83;20162;-64
2021/12/10 06:53:39;;;;;;;;;;;;;;;5.14;97.10;100391.66;1722877;83;20221;-64
2021/12/10 06:56:07;;;;;;;;;;;;;;;5.19;97.20;100387.09;1722764;83;20150;-66
2021/12/10 06:58:36;;;;;;;;;;;;;;;5.23;97.21;100389.86;1722681;83;20150;-64
2021/12/10 07:01:09;;;;;;;;;;;;;;;5.25;97.11;100386.47;1739627;81;20200;-65
2021/12/10 07:03:38;;;;;;;;;;;;;;;5.21;96.86;100384.59;1761131;81;20144;-65
2021/12/10 07:06:07;;;;;;;;;;;;;;;5.21;96.80;100383.73;1760978;81;20184;-66
2021/12/10 07:08:38;;;;;;;;;;;;;;;5.23;96.76;100393.42;1760562;81;20172;-66
2021/12/10 07:11:08;;;;;;;;;;;;;;;5.24;96.75;100392.41;1761291;81;20157;-65
2021/12/10 07:13:37;;;;;;;;;;;;;;;5.26;96.77;100397.67;1761139;81;20271;-65
2021/12/10 07:16:05;;;;;;;;;;;;;;;5.29;96.74;100399.56;1760963;81;20470;-65
2021/12/10 07:18:35;;;;;;;;;;;;;;;5.30;96.69;100395.83;1732920;81;20257;-65
2021/12/10 07:21:05;;;;;;;;;;;;;;;5.31;96.62;100392.09;1722605;83;20544;-65
2021/12/10 07:23:34;;;;;;;;;;;;;;;5.34;96.59;100387.69;1722587;83;20150;-64
2021/12/10 07:26:02;;;;;;;;;;;;;;;5.36;96.50;100387.02;1722603;83;20174;-65
2021/12/10 07:28:32;;;;;;;;;;;;;;;5.36;96.39;100373.94;1644309;87;20485;-65
2021/12/10 07:31:01;;;;;;;;;;;;;;;5.36;96.35;100376.16;1644215;87;20186;-66
2021/12/10 07:33:30;;;;;;;;;;;;;;;5.37;96.29;100374.28;1644748;87;20513;-64
2021/12/10 07:35:58;;;;;;;;;;;;;;;5.36;96.12;100372.08;1649275;87;20253;-65
2021/12/10 07:38:28;;;;;;;;;;;;;;;5.37;96.13;100368.34;1631832;88;20485;-66
2021/12/10 07:40:57;;;;;;;;;;;;;;;5.40;96.13;100368.52;1628384;88;20233;-68
2021/12/10 07:43:25;;;;;;;;;;;;;;;5.44;96.08;100367.17;1628779;88;20183;-66
2021/12/10 07:45:54;;;;;;;;;;;;;;;5.47;96.16;100351.90;1628752;88;20250;-64
2021/12/10 07:48:23;;;;;;;;;;;;;;;5.52;96.18;100349.53;1629727;88;20623;-66
2021/12/10 07:50:57;;;;;;;;;;;;;;;5.55;96.13;100330.17;1629154;88;20252;-62
2021/12/10 07:53:28;;;;;;;;;;;;;;;5.59;95.92;100336.13;1685283;83;20168;-65
2021/12/10 07:55:57;;;;;;;;;;;;;;;5.62;95.89;100327.12;1720655;83;20156;-66
2021/12/10 07:58:26;;;;;;;;;;;;;;;5.67;95.76;100332.91;1720971;83;20168;-65
2021/12/10 08:00:54;;;;;;;;;;;;;;;5.70;95.55;100324.42;1720793;83;20156;-65
2021/12/10 08:03:23;;;;;;;;;;;;;;;5.76;95.41;100327.48;1720661;83;20164;-66
2021/12/10 08:05:51;;;;;;;;;;;;;;;5.80;95.25;100331.05;1720691;83;20160;-64
2021/12/10 08:08:19;;;;;;;;;;;;;;;5.82;94.97;100333.09;1701148;83;20156;-66
2021/12/10 08:10:48;;;;;;;;;;;;;;;5.87;94.80;100336.19;1667067;85;20191;-66
2021/12/10 08:13:17;;;;;;;;;;;;;;;5.91;94.72;100341.67;1666919;85;20259;-66
2021/12/10 08:15:45;;;;;;;;;;;;;;;5.96;94.45;100347.45;1667182;86;20163;-66
2021/12/10 08:18:14;;;;;;;;;;;;;;;5.99;94.06;100336.23;1667326;86;20497;-65
2021/12/10 08:20:44;;;;;;;;;;;;;;;6.04;93.87;100337.08;1667239;86;20283;-66
2021/12/10 08:23:15;;;;;;;;;;;;;;;6.05;93.36;100325.18;1667203;85;20768;-66
2021/12/10 08:25:43;;;;;;;;;;;;;;;6.07;93.08;100327.73;1686346;84;20521;-66
2021/12/10 08:28:12;;;;;;;;;;;;;;;6.09;92.92;100324.33;1719506;83;20168;-66
2021/12/10 08:30:41;;;;;;;;;;;;;;;6.11;92.82;100315.48;1721216;83;20204;-66
2021/12/10 08:33:12;;;;;;;;;;;;;;;6.12;92.57;100317.19;1720850;83;20200;-66
2021/12/10 08:35:43;;;;;;;;;;;;;;;6.13;92.43;100320.24;1721021;83;20458;-66
2021/12/10 08:38:11;;;;;;;;;;;;;;;6.15;92.31;100315.48;1720998;83;20518;-66
2021/12/10 08:40:43;;;;;;;;;;;;;;;6.19;92.35;100313.61;1720775;83;20180;-66
2021/12/10 08:43:11;;;;;;;;;;;;;;;6.22;92.10;100318.70;1691505;83;20508;-66
2021/12/10 08:45:40;;;;;;;;;;;;;;;6.24;91.92;100326.70;1686926;85;20348;-65
2021/12/10 08:48:09;;;;;;;;;;;;;;;6.25;91.82;100321.59;1668817;85;20183;-69
2021/12/10 08:50:37;;;;;;;;;;;;;;;6.26;91.72;100320.06;1674913;86;20151;-69
2021/12/10 08:53:08;;;;;;;;;;;;;;;6.25;91.54;100326.52;1674891;86;20158;-66
2021/12/10 08:55:36;;;;;;;;;;;;;;;6.24;91.52;100309.86;1674961;86;20163;-66
2021/12/10 08:58:06;;;;;;;;;;;;;;;6.24;91.44;100311.73;1668884;85;20148;-66
2021/12/10 09:00:35;;;;;;;;;;;;;;;6.25;91.40;100313.43;1690245;84;20477;-66
2021/12/10 09:03:06;;;;;;;;;;;;;;;6.25;91.51;100317.00;1668319;85;20526;-69
2021/12/10 09:05:36;;;;;;;;;;;;;;;6.25;91.46;100310.71;1666528;85;20198;-67
2021/12/10 09:08:05;;;;;;;;;;;;;;;6.23;91.59;100300.51;1642405;87;20186;-68
2021/12/10 09:10:36;;;;;;;;;;;;;;;6.22;91.68;100298.81;1642564;87;20262;-67
2021/12/10 09:13:14;;;;;;;;;;;;;;;6.23;91.80;100312.75;1642271;87;20207;-67
2021/12/10 09:15:55;;;;;;;;;;;;;;;6.23;91.83;100308.67;1723483;82;20206;-68
2021/12/10 09:18:24;;;;;;;;;;;;;;;6.24;91.91;100305.78;1717137;84;20210;-67
2021/12/10 09:20:55;;;;;;;;;;;;;;;6.25;91.95;100308.84;1717246;84;20155;-71
2021/12/10 09:23:27;;;;;;;;;;;;;;;6.25;91.96;100302.04;1717367;83;20170;-66
2021/12/10 09:25:59;;;;;;;;;;;;;;;6.24;91.84;100298.13;1717303;84;20449;-70
2021/12/10 09:28:28;;;;;;;;;;;;;;;6.21;91.72;100297.11;1717188;84;20232;-67
2021/12/10 09:30:58;;;;;;;;;;;;;;;6.21;91.82;100295.75;1731359;82;20209;-66
2021/12/10 09:33:48;;;;;;;;;;;;;;;6.21;91.87;100280.80;1739727;82;20205;-67
2021/12/10 09:36:18;;;;;;;;;;;;;;;6.20;91.89;100279.94;1656691;87;20181;-67
2021/12/10 09:38:48;;;;;;;;;;;;;;;6.22;92.02;100277.90;1649589;87;20534;-67
2021/12/10 09:41:17;;;;;;;;;;;;;;;6.23;92.00;100270.59;1689986;85;20182;-67
2021/12/10 09:43:46;;;;;;;;;;;;;;;6.28;92.05;100276.36;1689270;85;20194;-67
2021/12/10 09:46:14;;;;;;;;;;;;;;;6.30;92.10;100273.80;1689263;85;20545;-67
2021/12/10 09:48:47;;;;;;;;;;;;;;;6.33;91.97;100277.53;1714121;84;20227;-68
2021/12/10 09:51:20;;;;;;;;;;;;;;;6.33;91.92;100268.02;1715752;84;20223;-68
2021/12/10 09:53:50;;;;;;;;;;;;;;;6.35;91.80;100258.31;1709359;84;20220;-66
2021/12/10 09:56:19;;;;;;;;;;;;;;;6.35;91.78;100259.67;1707864;84;20261;-66
2021/12/10 09:58:50;;;;;;;;;;;;;;;6.36;91.78;100265.45;1680526;85;20530;-67
2021/12/10 10:01:22;;;;;;;;;;;;;;;6.36;91.68;100262.22;1690809;85;20622;-67
2021/12/10 10:03:52;;;;;;;;;;;;;;;6.35;91.37;100261.88;1689062;84;20283;-68
2021/12/10 10:06:20;;;;;;;;;;;;;;;6.36;91.42;100262.73;1657213;87;20575;-67
2021/12/10 10:08:50;;;;;;;;;;;;;;;6.36;91.31;100257.29;1646461;86;20214;-68
2021/12/10 10:11:26;;;;;;;;;;;;;;;6.36;91.33;100264.09;1681254;84;20159;-67
2021/12/10 10:13:56;;;;;;;;;;;;;;;6.37;91.38;100263.07;1716216;84;20160;-69
2021/12/10 10:16:25;;;;;;;;;;;;;;;6.36;91.08;100254.56;1715972;84;20180;-67
2021/12/10 10:18:54;;;;;;;;;;;;;;;6.38;91.17;100256.60;1715869;84;20184;-67
2021/12/10 10:21:30;;;;;;;;;;;;;;;6.39;91.14;100250.14;1713279;84;20193;-69
2021/12/10 10:23:58;;;;;;;;;;;;;;;6.39;90.98;100247.92;1706652;83;20216;-66
2021/12/10 10:26:32;;;;;;;;;;;;;;;6.37;90.84;100249.47;1705875;84;20494;-69
2021/12/10 10:29:02;;;;;;;;;;;;;;;6.35;90.88;100242.84;1706112;84;20558;-66
2021/12/10 10:31:31;;;;;;;;;;;;;;;6.38;90.91;100242.15;1706194;84;20213;-68
2021/12/10 10:34:05;;;;;;;;;;;;;;;6.39;90.71;100241.97;1706798;82;20165;-66
2021/12/10 10:36:36;;;;;;;;;;;;;;;6.37;90.50;100234.50;1752602;82;20197;-67
2021/12/10 10:39:14;;;;;;;;;;;;;;;6.35;90.37;100231.95;1750256;81;20186;-67
2021/12/10 10:41:46;;;;;;;;;;;;;;;6.34;90.31;100234.33;1750086;82;20221;-66
2021/12/10 10:44:17;;;;;;;;;;;;;;;6.31;90.19;100225.16;1750175;82;20283;-66
2021/12/10 10:46:46;;;;;;;;;;;;;;;6.30;90.20;100222.10;1750179;82;20177;-66
2021/12/10 10:49:50;;;;;;;;;;;;;;;6.30;90.19;100217.17;1760609;81;20196;-68
2021/12/10 10:52:28;;;;;;;;;;;;;;;6.31;90.26;100220.23;1756249;81;20152;-67
2021/12/10 10:54:54;;;;;;;;;;;;;;;6.34;90.42;100211.72;1732318;83;20585;-65
2021/12/10 10:57:25;;;;;;;;;;;;;;;6.33;90.44;100199.98;1702854;84;20534;-66
2021/12/10 10:59:57;;;;;;;;;;;;;;;6.34;90.48;100199.47;1702821;84;20205;-69
2021/12/10 11:02:26;;;;;;;;;;;;;;;6.35;90.56;100199.81;1702657;84;20166;-66
2021/12/10 11:04:58;;;;;;;;;;;;;;;6.34;90.48;100189.95;1702734;84;20467;-67
2021/12/10 11:07:26;;;;;;;;;;;;;;;6.35;90.58;100194.38;1700887;84;20158;-68
2021/12/10 11:10:01;;;;;;;;;;;;;;;6.35;90.47;100199.30;1694388;85;20202;-67
2021/12/10 11:12:35;;;;;;;;;;;;;;;6.33;90.26;100195.05;1763224;81;20262;-68
2021/12/10 11:15:08;;;;;;;;;;;;;;;6.30;90.29;100198.12;1763564;81;20503;-67
2021/12/10 11:17:41;;;;;;;;;;;;;;;6.28;90.32;100187.93;1760353;81;20308;-67
2021/12/10 11:20:31;;;;;;;;;;;;;;;6.24;90.48;100190.16;1750584;82;20178;-66
2021/12/10 11:23:07;;;;;;;;;;;;;;;6.23;90.65;100194.41;1694694;84;20642;-67
2021/12/10 11:25:41;;;;;;;;;;;;;;;6.21;90.79;100185.06;1689149;84;20154;-67
2021/12/10 11:28:18;;;;;;;;;;;;;;;6.22;91.03;100191.35;1688981;85;20289;-66
2021/12/10 11:30:50;;;;;;;;;;;;;;;6.21;91.12;100187.78;1689028;84;20532;-67
2021/12/10 11:33:21;;;;;;;;;;;;;;;6.23;91.25;100182.17;1688832;85;20222;-66
2021/12/10 11:36:05;;;;;;;;;;;;;;;6.28;91.80;100179.77;1689015;85;20182;-68
2021/12/10 11:38:34;;;;;;;;;;;;;;;6.31;91.60;100168.53;1688885;84;20158;-65
2021/12/10 11:41:14;;;;;;;;;;;;;;;6.31;91.52;100164.45;1688875;85;20162;-67
2021/12/10 11:44:18;;;;;;;;;;;;;;;6.31;91.60;100169.89;1687995;85;20235;-67
2021/12/10 11:49:28;;;;;;;;;;;;;;;6.37;91.92;100152.86;1688957;84;20174;-66
2021/12/10 11:52:05;;;;;;;;;;;;;;;6.39;91.99;100147.25;1689111;84;20507;-67
2021/12/10 11:54:38;;;;;;;;;;;;;;;6.38;92.02;100143.67;1689359;84;20170;-66
2021/12/10 11:57:15;;;;;;;;;;;;;;;6.36;91.99;100145.22;1689028;83;20180;-67
2021/12/10 11:59:50;;;;;;;;;;;;;;;6.42;92.30;100142.30;1699888;84;20462;-66
2021/12/10 12:02:25;;;;;;;;;;;;;;;6.44;92.24;100123.92;1692336;84;20177;-68
2021/12/10 12:04:58;;;;;;;;;;;;;;;6.44;92.12;100111.67;1688345;84;20238;-68
2021/12/10 12:07:57;;;;;;;;;;;;;;;6.43;92.14;100097.73;1683836;84;20251;-69
2021/12/10 12:10:32;;;;;;;;;;;;;;;6.45;92.32;100111.16;1700418;84;20189;-69
2021/12/10 12:13:25;;;;;;;;;;;;;;;6.48;92.49;100108.08;1704711;84;20220;-67
2021/12/10 12:15:45;;;;;;;;;;;;;;;6.52;92.47;100113.02;1700577;84;20159;-68
2021/12/10 12:18:22;;;;;;;;;;;;;;;6.55;92.59;100115.90;1628445;88;20167;-69
2021/12/10 12:20:52;;;;;;;;;;;;;;;6.60;92.70;100118.41;1624994;88;20477;-68
2021/12/10 12:26:18;;;;;;;;;;;;;;;6.64;92.41;100118.39;1655029;86;20224;-68
2021/12/10 12:28:55;;;;;;;;;;;;;;;6.63;92.20;100119.94;1655827;86;20185;-68
2021/12/10 12:31:33;;;;;;;;;;;;;;;6.62;92.02;100115.52;1656135;86;20168;-66
2021/12/10 12:34:14;;;;;;;;;;;;;;;6.63;92.01;100122.66;1678987;84;20206;-70
2021/12/10 12:36:52;;;;;;;;;;;;;;;6.63;91.98;100119.94;1681940;85;20202;-68
2021/12/10 12:39:31;;;;;;;;;;;;;;;6.64;92.05;100121.11;1681969;85;20322;-68
2021/12/10 12:42:02;;;;;;;;;;;;;;;6.65;92.13;100105.11;1677359;85;20515;-68
2021/12/10 12:44:35;;;;;;;;;;;;;;;6.67;92.13;100106.30;1682440;85;20935;-69
2021/12/10 12:47:12;;;;;;;;;;;;;;;6.69;92.15;100116.48;1692719;84;20318;-68
2021/12/10 12:49:52;;;;;;;;;;;;;;;6.71;92.11;100125.33;1655238;87;20169;-67
2021/12/10 12:52:37;;;;;;;;;;;;;;;6.71;92.11;100125.84;1655523;86;20481;-68
2021/12/10 12:55:30;;;;;;;;;;;;;;;6.71;92.06;100121.75;1655457;87;20533;-67
2021/12/10 12:58:12;;;;;;;;;;;;;;;6.72;92.18;100130.26;1655466;87;20510;-67
2021/12/10 13:00:57;;;;;;;;;;;;;;;6.72;92.18;100120.22;1661621;84;20184;-68
2021/12/10 13:03:41;;;;;;;;;;;;;;;6.72;92.22;100113.92;1702197;84;20540;-67
2021/12/10 13:06:18;;;;;;;;;;;;;;;6.73;92.22;100125.14;1700064;84;20577;-67
2021/12/10 13:09:09;;;;;;;;;;;;;;;6.72;92.34;100118.85;1709228;83;20167;-66
2021/12/10 13:14:35;;;;;;;;;;;;;;;6.78;92.53;100114.05;1725966;83;20528;-68
2021/12/10 13:17:11;;;;;;;;;;;;;;;6.80;92.51;100115.23;1708412;83;20164;-66
2021/12/10 13:19:40;;;;;;;;;;;;;;;6.81;92.51;100108.76;1698935;84;20289;-67
2021/12/10 13:22:16;;;;;;;;;;;;;;;6.82;92.53;100109.09;1699043;84;20489;-67
2021/12/10 13:24:47;;;;;;;;;;;;;;;6.81;92.46;100107.39;1699062;84;20165;-67
2021/12/10 13:27:16;;;;;;;;;;;;;;;6.82;92.48;100111.81;1698997;84;20475;-67